createdAt,value
2022-10-19T00:00:08.468Z,101844.91
2022-10-19T00:02:36.436Z,101841.94
2022-10-19T00:05:03.404Z,101843.38
2022-10-19T00:07:50.503Z,101841.34
2022-10-19T00:10:30.894Z,101846.09
2022-10-19T00:12:58.076Z,101838.53
2022-10-19T00:15:24.864Z,101844.81
2022-10-19T00:17:51.666Z,101841.50
2022-10-19T00:20:18.643Z,101847.41
2022-10-19T00:22:45.524Z,101836.75
2022-10-19T00:25:12.607Z,101836.31
2022-10-19T00:27:39.387Z,101828.16
2022-10-19T00:30:06.772Z,101828.16
2022-10-19T00:32:34.007Z,101826.56
2022-10-19T00:35:01.895Z,101830.75
2022-10-19T00:37:29.494Z,101825.31
2022-10-19T00:39:56.299Z,101829.91
2022-10-19T00:42:23.131Z,101830.63
2022-10-19T00:44:49.865Z,101828.00
2022-10-19T00:47:37.508Z,101818.94
2022-10-19T00:50:38.529Z,101818.94
2022-10-19T00:53:19.426Z,101824.31
2022-10-19T00:56:16.490Z,101821.44
2022-10-19T00:59:18.517Z,101818.16
2022-10-19T01:01:59.585Z,101817.28
2022-10-19T01:04:27.012Z,101815.56
2022-10-19T01:07:15.528Z,101814.41
2022-10-19T01:09:56.167Z,101821.34
2022-10-19T01:12:29.308Z,101811.81
2022-10-19T01:14:59.200Z,101815.06
2022-10-19T01:17:33.766Z,101803.59
2022-10-19T01:20:14.674Z,101809.75
2022-10-19T01:22:41.638Z,101807.84
2022-10-19T01:25:11.619Z,101817.50
2022-10-19T01:28:05.081Z,101816.00
2022-10-19T01:30:39.406Z,101815.41
2022-10-19T01:33:32.818Z,101810.91
2022-10-19T01:36:18.455Z,101806.31
2022-10-19T01:38:51.941Z,101805.41
2022-10-19T01:41:21.865Z,101802.94
2022-10-19T01:43:59.934Z,101796.81
2022-10-19T01:46:49.633Z,101796.88
2022-10-19T01:49:35.368Z,101791.84
2022-10-19T01:52:04.307Z,101787.53
2022-10-19T01:54:57.535Z,101778.88
2022-10-19T01:58:08.228Z,101786.38
2022-10-19T02:00:52.378Z,101783.13
2022-10-19T02:03:19.888Z,101779.53
2022-10-19T02:05:48.365Z,101776.78
2022-10-19T02:08:40.544Z,101788.25
2022-10-19T02:11:22.310Z,101779.03
2022-10-19T02:13:54.663Z,101781.44
2022-10-19T02:16:30.416Z,101780.22
2022-10-19T02:18:58.253Z,101780.06
2022-10-19T02:21:26.199Z,101776.66
2022-10-19T02:23:54.283Z,101774.78
2022-10-19T02:26:21.991Z,101774.16
2022-10-19T02:28:48.990Z,101784.47
2022-10-19T02:31:16.096Z,101784.91
2022-10-19T02:33:43.045Z,101782.16
2022-10-19T02:36:10.023Z,101766.91
2022-10-19T02:38:37.077Z,101770.34
2022-10-19T02:41:18.971Z,101764.69
2022-10-19T02:43:49.155Z,101765.28
2022-10-19T02:46:43.557Z,101758.41
2022-10-19T02:49:39.811Z,101755.66
2022-10-19T02:52:20.064Z,101759.84
2022-10-19T02:55:07.588Z,101755.25
2022-10-19T02:58:08.594Z,101759.31
2022-10-19T03:01:09.704Z,101752.81
2022-10-19T03:04:10.817Z,101753.63
2022-10-19T03:06:58.610Z,101755.31
2022-10-19T03:09:39.044Z,101753.56
2022-10-19T03:12:06.036Z,101753.75
2022-10-19T03:14:33.088Z,101752.69
2022-10-19T03:17:00.368Z,101754.59
2022-10-19T03:19:27.295Z,101759.94
2022-10-19T03:21:54.141Z,101756.59
2022-10-19T03:24:21.054Z,101754.81
2022-10-19T03:26:47.951Z,101751.75
2022-10-19T03:29:14.955Z,101761.31
2022-10-19T03:31:41.736Z,101754.47
2022-10-19T03:34:08.503Z,101760.41
2022-10-19T03:36:41.003Z,101760.84
2022-10-19T03:39:11.333Z,101761.59
2022-10-19T03:41:38.911Z,101762.38
2022-10-19T03:44:07.038Z,101759.06
2022-10-19T03:46:54.700Z,101754.75
2022-10-19T03:49:38.064Z,101759.09
2022-10-19T03:52:07.236Z,101749.81
2022-10-19T03:54:54.716Z,101767.63
2022-10-19T03:57:48.689Z,101762.97
2022-10-19T04:00:29.056Z,101763.91
2022-10-19T04:02:55.951Z,101769.44
2022-10-19T04:05:22.966Z,101770.50
2022-10-19T04:08:09.631Z,101771.09
2022-10-19T04:11:15.124Z,101772.63
2022-10-19T04:13:56.093Z,101761.44
2022-10-19T04:16:24.019Z,101764.19
2022-10-19T04:18:53.718Z,101754.84
2022-10-19T04:21:23.017Z,101763.41
2022-10-19T04:23:51.073Z,101754.00
2022-10-19T04:26:18.204Z,101751.25
2022-10-19T04:28:45.200Z,101745.03
2022-10-19T04:31:13.016Z,101754.00
2022-10-19T04:33:40.477Z,101750.50
2022-10-19T04:36:08.919Z,101747.41
2022-10-19T04:38:36.374Z,101750.22
2022-10-19T04:41:14.119Z,101751.50
2022-10-19T04:43:41.329Z,101756.69
2022-10-19T04:46:32.694Z,101750.78
2022-10-19T04:49:16.446Z,101750.09
2022-10-19T04:52:07.743Z,101752.72
2022-10-19T04:55:09.888Z,101749.97
2022-10-19T04:57:50.126Z,101749.78
2022-10-19T05:00:37.143Z,101747.28
2022-10-19T05:03:17.742Z,101753.63
2022-10-19T05:05:44.764Z,101754.44
2022-10-19T05:08:12.041Z,101752.59
2022-10-19T05:10:41.221Z,101751.75
2022-10-19T05:13:12.157Z,101755.25
2022-10-19T05:16:08.727Z,101756.03
2022-10-19T05:19:09.914Z,101753.38
2022-10-19T05:21:50.334Z,101752.72
2022-10-19T05:24:17.178Z,101750.63
2022-10-19T05:26:44.273Z,101752.00
2022-10-19T05:29:19.076Z,101754.34
2022-10-19T05:31:47.726Z,101751.13
2022-10-19T05:34:17.097Z,101748.03
2022-10-19T05:36:44.902Z,101745.34
2022-10-19T05:39:19.655Z,101740.09
2022-10-19T05:41:47.783Z,101749.13
2022-10-19T05:44:19.036Z,101737.75
2022-10-19T05:47:06.371Z,101733.06
2022-10-19T05:50:06.913Z,101738.84
2022-10-19T05:53:07.759Z,101732.81
2022-10-19T05:56:08.843Z,101741.09
2022-10-19T05:59:09.786Z,101738.88
2022-10-19T06:01:50.335Z,101746.50
2022-10-19T06:06:44.502Z,101750.75
2022-10-19T06:09:11.574Z,101754.59
2022-10-19T06:11:40.309Z,101747.91
2022-10-19T06:14:28.744Z,101744.56
2022-10-19T06:17:16.611Z,101748.75
2022-10-19T06:19:43.460Z,101756.38
2022-10-19T06:22:10.966Z,101757.69
2022-10-19T06:24:37.896Z,101756.97
2022-10-19T06:27:07.173Z,101762.41
2022-10-19T06:29:34.228Z,101759.00
2022-10-19T06:32:01.109Z,101775.56
2022-10-19T06:34:28.635Z,101769.41
2022-10-19T06:36:55.703Z,101772.59
2022-10-19T06:39:42.709Z,101772.09
2022-10-19T06:42:45.701Z,101773.28
2022-10-19T06:45:46.722Z,101776.00
2022-10-19T06:48:47.717Z,101776.59
2022-10-19T06:51:34.808Z,101779.59
2022-10-19T06:54:35.785Z,101779.03
2022-10-19T06:57:16.588Z,101780.63
2022-10-19T07:00:03.824Z,101783.13
2022-10-19T07:02:44.234Z,101781.34
2022-10-19T07:05:11.742Z,101788.91
2022-10-19T07:07:39.084Z,101791.88
2022-10-19T07:10:06.649Z,101793.06
2022-10-19T07:12:53.767Z,101782.84
2022-10-19T07:15:54.771Z,101793.94
2022-10-19T07:18:36.668Z,101790.91
2022-10-19T07:21:05.895Z,101792.59
2022-10-19T07:23:34.010Z,101791.44
2022-10-19T07:26:04.369Z,101790.13
2022-10-19T07:28:31.519Z,101792.69
2022-10-19T07:30:58.603Z,101786.75
2022-10-19T07:33:25.494Z,101790.50
2022-10-19T07:35:58.534Z,101801.44
2022-10-19T07:38:25.665Z,101801.97
2022-10-19T07:40:59.340Z,101810.59
2022-10-19T07:43:46.746Z,101808.69
2022-10-19T07:46:47.744Z,101819.59
2022-10-19T07:49:48.795Z,101812.03
2022-10-19T07:52:30.786Z,101803.13
2022-10-19T07:55:19.767Z,101807.44
2022-10-19T07:58:02.106Z,101803.06
2022-10-19T08:00:29.905Z,101820.97
2022-10-19T08:03:23.090Z,101816.03
2022-10-19T08:05:43.847Z,101819.94
2022-10-19T08:08:11.089Z,101814.50
2022-10-19T08:10:38.157Z,101813.41
2022-10-19T08:13:04.871Z,101817.72
2022-10-19T08:15:51.753Z,101821.22
2022-10-19T08:18:52.809Z,101816.38
2022-10-19T08:21:33.354Z,101816.56
2022-10-19T08:24:00.546Z,101805.25
2022-10-19T08:26:31.822Z,101804.81
2022-10-19T08:28:59.592Z,101803.97
2022-10-19T08:31:26.393Z,101802.16
2022-10-19T08:33:53.162Z,101806.91
2022-10-19T08:36:20.232Z,101804.25
2022-10-19T08:38:49.066Z,101800.44
2022-10-19T08:41:25.451Z,101803.41
2022-10-19T08:44:11.638Z,101806.78
2022-10-19T08:47:00.509Z,101808.75
2022-10-19T08:50:02.803Z,101798.53
2022-10-19T08:53:07.829Z,101788.59
2022-10-19T08:56:15.032Z,101788.22
2022-10-19T08:59:16.970Z,101793.53
2022-10-19T09:01:58.273Z,101788.41
2022-10-19T09:04:25.323Z,101784.97
2022-10-19T09:07:26.795Z,101782.44
2022-10-19T09:10:13.440Z,101785.88
2022-10-19T09:12:45.211Z,101783.25
2022-10-19T09:15:14.865Z,101774.84
2022-10-19T09:17:41.735Z,101776.81
2022-10-19T09:20:17.901Z,101766.00
2022-10-19T09:22:45.461Z,101765.63
2022-10-19T09:25:15.326Z,101775.97
2022-10-19T09:27:44.627Z,101773.69
2022-10-19T09:30:19.722Z,101774.13
2022-10-19T09:33:15.432Z,101768.63
2022-10-19T09:36:22.610Z,101770.28
2022-10-19T09:39:29.351Z,101775.41
2022-10-19T09:42:40.808Z,101771.75
2022-10-19T09:45:59.858Z,101771.94
2022-10-19T09:49:06.708Z,101765.91
2022-10-19T09:51:41.388Z,101767.75
2022-10-19T09:54:57.841Z,101778.63
2022-10-19T09:57:45.499Z,101774.53
2022-10-19T10:00:44.878Z,101773.66
2022-10-19T10:03:30.601Z,101772.41
2022-10-19T10:06:19.845Z,101768.31
2022-10-19T10:09:20.836Z,101771.56
2022-10-19T10:12:01.342Z,101772.94
2022-10-19T10:14:29.954Z,101773.78
2022-10-19T10:16:58.051Z,101766.69
2022-10-19T10:19:29.209Z,101763.78
2022-10-19T10:21:58.015Z,101761.41
2022-10-19T10:24:28.224Z,101758.88
2022-10-19T10:26:55.163Z,101759.94
2022-10-19T10:29:23.954Z,101749.03
2022-10-19T10:32:27.848Z,101757.22
2022-10-19T10:35:17.169Z,101753.88
2022-10-19T10:37:45.471Z,101753.00
2022-10-19T10:40:31.875Z,101737.28
2022-10-19T10:43:20.856Z,101734.59
2022-10-19T10:46:26.866Z,101731.03
2022-10-19T10:49:33.831Z,101739.09
2022-10-19T10:52:35.174Z,101727.50
2022-10-19T10:55:35.844Z,101718.59
2022-10-19T10:58:44.583Z,101715.06
2022-10-19T11:01:22.749Z,101706.91
2022-10-19T11:03:57.414Z,101714.16
2022-10-19T11:06:45.882Z,101715.06
2022-10-19T11:09:31.558Z,101707.75
2022-10-19T11:12:02.047Z,101698.97
2022-10-19T11:14:29.384Z,101696.41
2022-10-19T11:16:58.633Z,101690.19
2022-10-19T11:19:27.462Z,101683.97
2022-10-19T11:22:03.119Z,101679.53
2022-10-19T11:27:09.063Z,101676.00
2022-10-19T11:29:36.005Z,101677.78
2022-10-19T11:32:28.884Z,101674.22
2022-10-19T11:35:18.318Z,101667.84
2022-10-19T11:38:19.665Z,101669.66
2022-10-19T11:41:23.105Z,101661.75
2022-10-19T11:44:32.960Z,101660.91
2022-10-19T11:47:46.916Z,101660.88
2022-10-19T11:51:17.351Z,101660.00
2022-10-19T11:54:41.026Z,101654.59
2022-10-19T11:57:43.911Z,101647.41
2022-10-19T12:00:38.817Z,101642.06
2022-10-19T12:03:18.776Z,101637.44
2022-10-19T12:06:09.422Z,101635.50
2022-10-19T12:08:55.237Z,101635.66
2022-10-19T12:11:23.834Z,101627.00
2022-10-19T12:13:53.003Z,101621.38
2022-10-19T12:16:21.698Z,101621.22
2022-10-19T12:19:12.901Z,101614.94
2022-10-19T12:21:55.389Z,101605.47
2022-10-19T12:24:25.076Z,101601.13
2022-10-19T12:26:54.719Z,101607.47
2022-10-19T12:29:24.583Z,101592.34
2022-10-19T12:32:06.954Z,101594.00
2022-10-19T12:34:50.908Z,101586.84
2022-10-19T12:37:28.204Z,101589.50
2022-10-19T12:39:55.154Z,101583.22
2022-10-19T12:42:44.966Z,101586.69
2022-10-19T12:45:39.137Z,101576.19
2022-10-19T12:48:40.008Z,101564.97
2022-10-19T12:51:40.973Z,101559.53
2022-10-19T12:54:36.071Z,101548.88
2022-10-19T12:57:41.969Z,101542.69
2022-10-19T13:00:24.901Z,101542.50
2022-10-19T13:02:58.015Z,101538.94
2022-10-19T13:05:44.942Z,101539.84
2022-10-19T13:08:52.286Z,101528.41
2022-10-19T13:11:33.014Z,101528.47
2022-10-19T13:14:01.372Z,101531.16
2022-10-19T13:16:52.002Z,101523.06
2022-10-19T13:19:32.719Z,101516.72
2022-10-19T13:22:00.167Z,101510.44
2022-10-19T13:24:27.302Z,101515.72
2022-10-19T13:27:03.331Z,101520.16
2022-10-19T13:29:39.623Z,101513.03
2022-10-19T13:32:25.731Z,101511.13
2022-10-19T13:34:53.786Z,101502.41
2022-10-19T13:37:21.029Z,101512.91
2022-10-19T13:40:08.036Z,101522.06
2022-10-19T13:42:58.427Z,101508.59
2022-10-19T13:45:44.998Z,101510.34
2022-10-19T13:48:51.975Z,101505.13
2022-10-19T13:51:58.953Z,101508.56
2022-10-19T13:54:59.316Z,101504.09
2022-10-19T13:57:50.104Z,101501.56
2022-10-19T14:00:51.058Z,101498.09
2022-10-19T14:03:50.725Z,101503.53
2022-10-19T14:06:47.161Z,101503.47
2022-10-19T14:09:39.775Z,101498.00
2022-10-19T14:12:16.243Z,101502.34
2022-10-19T14:14:44.106Z,101504.09
2022-10-19T14:17:14.780Z,101500.78
2022-10-19T14:19:43.148Z,101498.78
2022-10-19T14:22:30.292Z,101489.84
2022-10-19T14:25:05.278Z,101494.41
2022-10-19T14:27:36.763Z,101489.94
2022-10-19T14:30:38.104Z,101488.16
2022-10-19T14:33:19.923Z,101481.97
2022-10-19T14:35:49.665Z,101482.84
2022-10-19T14:38:22.019Z,101477.19
2022-10-19T14:41:09.056Z,101479.09
2022-10-19T14:43:49.611Z,101474.66
2022-10-19T14:46:16.613Z,101477.44
2022-10-19T14:48:47.436Z,101479.22
2022-10-19T14:51:17.426Z,101479.25
2022-10-19T14:54:13.664Z,101476.59
2022-10-19T14:56:56.193Z,101472.22
2022-10-19T14:59:35.318Z,101471.28
2022-10-19T15:02:31.375Z,101480.25
2022-10-19T15:05:37.057Z,101473.13
2022-10-19T15:08:49.119Z,101460.66
2022-10-19T15:11:29.618Z,101460.72
2022-10-19T15:13:59.352Z,101461.59
2022-10-19T15:17:04.089Z,101466.94
2022-10-19T15:19:46.100Z,101453.59
2022-10-19T15:22:13.484Z,101450.91
2022-10-19T15:24:41.381Z,101456.25
2022-10-19T15:27:32.073Z,101453.59
2022-10-19T15:30:33.016Z,101449.09
2022-10-19T15:33:14.498Z,101444.72
2022-10-19T15:35:44.123Z,101452.66
2022-10-19T15:38:14.704Z,101448.25
2022-10-19T15:40:42.865Z,101447.34
2022-10-19T15:43:28.449Z,101449.09
2022-10-19T15:46:01.546Z,101448.22
2022-10-19T15:48:29.413Z,101450.88
2022-10-19T15:51:18.652Z,101443.84
2022-10-19T15:54:24.053Z,101449.28
2022-10-19T15:57:04.469Z,101444.06
2022-10-19T15:59:31.707Z,101442.34
2022-10-19T16:02:26.184Z,101443.25
2022-10-19T16:05:27.094Z,101443.28
2022-10-19T16:08:10.163Z,101450.41
2022-10-19T16:10:39.337Z,101440.69
2022-10-19T16:13:06.383Z,101449.56
2022-10-19T16:16:01.445Z,101438.09
2022-10-19T16:18:50.811Z,101441.69
2022-10-19T16:21:18.084Z,101439.91
2022-10-19T16:24:05.107Z,101436.34
2022-10-19T16:26:48.804Z,101440.81
2022-10-19T16:29:15.598Z,101451.44
2022-10-19T16:31:42.369Z,101451.44
2022-10-19T16:34:11.854Z,101450.53
2022-10-19T16:37:07.433Z,101459.38
2022-10-19T16:39:47.761Z,101451.31
2022-10-19T16:42:30.553Z,101455.69
2022-10-19T16:45:26.940Z,101443.28
2022-10-19T16:48:34.305Z,101449.44
2022-10-19T16:51:07.821Z,101455.59
2022-10-19T16:53:35.215Z,101456.44
2022-10-19T16:56:37.178Z,101456.41
2022-10-19T16:59:17.120Z,101463.50
2022-10-19T17:02:04.417Z,101474.97
2022-10-19T17:05:05.203Z,101479.25
2022-10-19T17:07:55.508Z,101486.06
2022-10-19T17:10:22.419Z,101478.78
2022-10-19T17:12:49.311Z,101475.13
2022-10-19T17:15:41.514Z,101477.69
2022-10-19T17:18:03.423Z,101481.13
2022-10-19T17:20:32.322Z,101485.41
2022-10-19T17:22:59.552Z,101478.19
2022-10-19T17:25:26.450Z,101486.03
2022-10-19T17:27:56.390Z,101483.41
2022-10-19T17:30:24.295Z,101484.44
2022-10-19T17:33:11.104Z,101484.28
2022-10-19T17:35:51.788Z,101487.47
2022-10-19T17:38:18.615Z,101477.69
2022-10-19T17:40:45.476Z,101486.47
2022-10-19T17:43:12.296Z,101494.41
2022-10-19T17:45:39.504Z,101495.28
2022-10-19T17:48:07.512Z,101495.03
2022-10-19T17:51:09.286Z,101499.28
2022-10-19T17:54:11.201Z,101493.88
2022-10-19T17:56:52.564Z,101498.41
2022-10-19T17:59:30.045Z,101500.81
2022-10-19T18:02:23.124Z,101501.63
2022-10-19T18:05:04.749Z,101496.88
2022-10-19T18:07:34.522Z,101502.22
2022-10-19T18:10:04.881Z,101503.94
2022-10-19T18:12:40.276Z,101498.69
2022-10-19T18:15:07.716Z,101496.88
2022-10-19T18:17:43.421Z,101505.19
2022-10-19T18:20:11.608Z,101509.56
2022-10-19T18:22:59.179Z,101515.91
2022-10-19T18:26:00.202Z,101515.78
2022-10-19T18:28:57.389Z,101517.53
2022-10-19T18:31:44.466Z,101514.84
2022-10-19T18:34:26.178Z,101524.69
2022-10-19T18:37:14.199Z,101521.94
2022-10-19T18:40:17.862Z,101524.38
2022-10-19T18:43:18.187Z,101529.69
2022-10-19T18:45:59.553Z,101528.22
2022-10-19T18:48:27.223Z,101527.38
2022-10-19T18:51:16.451Z,101530.06
2022-10-19T18:54:17.274Z,101536.06
2022-10-19T18:57:18.174Z,101534.16
2022-10-19T19:00:19.217Z,101527.88
2022-10-19T19:03:00.006Z,101529.66
2022-10-19T19:05:27.469Z,101538.38
2022-10-19T19:07:56.205Z,101535.69
2022-10-19T19:10:25.243Z,101537.53
2022-10-19T19:13:12.203Z,101537.72
2022-10-19T19:15:56.371Z,101526.22
2022-10-19T19:18:23.337Z,101532.34
2022-10-19T19:21:10.469Z,101524.38
2022-10-19T19:24:15.194Z,101535.63
2022-10-19T19:27:16.230Z,101536.47
2022-10-19T19:30:18.033Z,101542.53
2022-10-19T19:32:58.641Z,101523.03
2022-10-19T19:35:25.829Z,101536.47
2022-10-19T19:38:13.173Z,101521.47
2022-10-19T19:40:54.064Z,101532.81
2022-10-19T19:43:20.947Z,101532.56
2022-10-19T19:48:22.798Z,101538.78
2022-10-19T19:51:10.339Z,101546.03
2022-10-19T19:54:11.358Z,101549.78
2022-10-19T19:57:13.212Z,101551.50
2022-10-19T20:00:14.222Z,101558.66
2022-10-19T20:03:02.997Z,101552.44
2022-10-19T20:05:29.791Z,101553.25
2022-10-19T20:07:56.692Z,101549.63
2022-10-19T20:10:23.689Z,101558.47
2022-10-19T20:13:11.242Z,101556.06
2022-10-19T20:15:51.709Z,101561.03
2022-10-19T20:18:18.916Z,101551.22
2022-10-19T20:21:06.285Z,101557.78
2022-10-19T20:24:00.227Z,101565.88
2022-10-19T20:27:01.235Z,101568.97
2022-10-19T20:29:41.664Z,101563.69
2022-10-19T20:32:08.714Z,101571.75
2022-10-19T20:34:36.077Z,101575.16
2022-10-19T20:37:03.061Z,101570.69
2022-10-19T20:39:29.854Z,101567.41
2022-10-19T20:41:56.716Z,101576.06
2022-10-19T20:44:44.237Z,101575.13
2022-10-19T20:47:45.256Z,101566.97
2022-10-19T20:50:47.272Z,101567.28
2022-10-19T20:53:48.232Z,101574.88
2022-10-19T20:56:50.262Z,101572.78
2022-10-19T20:59:33.085Z,101575.34
2022-10-19T21:01:59.878Z,101576.41
2022-10-19T21:04:26.894Z,101578.34
2022-10-19T21:06:53.950Z,101575.25
2022-10-19T21:09:23.246Z,101578.25
2022-10-19T21:11:51.026Z,101576.38
2022-10-19T21:14:39.276Z,101573.25
2022-10-19T21:17:19.821Z,101573.19
2022-10-19T21:20:07.263Z,101572.97
2022-10-19T21:22:47.687Z,101572.38
2022-10-19T21:25:37.258Z,101581.09
2022-10-19T21:28:31.380Z,101583.72
2022-10-19T21:31:25.263Z,101586.63
2022-10-19T21:34:06.598Z,101584.84
2022-10-19T21:36:33.909Z,101593.19
2022-10-19T21:39:00.758Z,101599.16
2022-10-19T21:41:27.769Z,101596.22
2022-10-19T21:44:15.279Z,101603.25
2022-10-19T21:47:16.279Z,101608.94
2022-10-19T21:49:56.787Z,101608.34
2022-10-19T21:52:44.289Z,101610.56
2022-10-19T21:55:48.278Z,101614.59
2022-10-19T21:58:28.730Z,101603.47
2022-10-19T22:00:55.501Z,101605.72
2022-10-19T22:03:22.249Z,101611.06
2022-10-19T22:05:52.444Z,101609.25
2022-10-19T22:08:19.272Z,101611.81
2022-10-19T22:10:59.328Z,101609.09
2022-10-19T22:14:00.281Z,101609.84
2022-10-19T22:16:41.203Z,101603.91
2022-10-19T22:19:08.256Z,101609.00
2022-10-19T22:21:35.443Z,101614.16
2022-10-19T22:24:03.678Z,101614.25
2022-10-19T22:26:32.095Z,101605.31
2022-10-19T22:29:20.279Z,101604.28
2022-10-19T22:32:21.294Z,101608.50
2022-10-19T22:35:22.334Z,101607.94
2022-10-19T22:38:02.883Z,101605.53
2022-10-19T22:40:29.676Z,101603.06
2022-10-19T22:43:53.311Z,101597.00
2022-10-19T22:47:11.795Z,101598.28
2022-10-19T22:50:16.399Z,101598.72
2022-10-19T22:53:12.304Z,101599.97
2022-10-19T22:56:13.348Z,101600.03
2022-10-19T22:58:53.680Z,101599.34
2022-10-19T23:01:20.614Z,101604.47
2022-10-19T23:03:47.515Z,101606.59
2022-10-19T23:06:15.623Z,101609.44
2022-10-19T23:08:43.187Z,101607.53
2022-10-19T23:11:09.972Z,101611.78
2022-10-19T23:13:36.808Z,101613.63
2022-10-19T23:16:23.315Z,101620.78
2022-10-19T23:19:03.759Z,101620.31
2022-10-19T23:21:30.739Z,101619.44
2022-10-19T23:23:57.526Z,101621.84
2022-10-19T23:26:25.161Z,101624.63
2022-10-19T23:29:12.342Z,101623.75
2022-10-19T23:32:13.310Z,101626.63
2022-10-19T23:35:14.329Z,101625.78
2022-10-19T23:37:54.771Z,101633.91
2022-10-19T23:40:21.515Z,101638.50
2022-10-19T23:42:48.428Z,101638.50
2022-10-19T23:45:15.386Z,101636.41
2022-10-19T23:47:42.148Z,101637.03
2022-10-19T23:50:08.955Z,101635.78
2022-10-19T23:52:36.019Z,101635.28
2022-10-19T23:55:23.353Z,101637.75
2022-10-19T23:58:03.773Z,101637.47
